createdAt,value
2023-03-04T00:02:07.609Z,58.40
2023-03-04T00:04:36.183Z,53.97
2023-03-04T00:07:04.756Z,56.95
2023-03-04T00:09:33.230Z,62.07
2023-03-04T00:12:01.868Z,67.00
2023-03-04T00:14:31.349Z,56.17
2023-03-04T00:17:00.021Z,65.07
2023-03-04T00:19:28.518Z,63.72
2023-03-04T00:21:56.978Z,59.37
2023-03-04T00:24:25.986Z,57.28
2023-03-04T00:26:54.458Z,63.50
2023-03-04T00:29:23.171Z,59.80
2023-03-04T00:31:52.922Z,62.03
2023-03-04T00:34:21.752Z,59.53
2023-03-04T00:36:54.940Z,58.45
2023-03-04T00:39:23.558Z,61.45
2023-03-04T00:41:52.145Z,63.13
2023-03-04T00:44:46.935Z,57.05
2023-03-04T00:47:19.464Z,60.50
2023-03-04T00:49:48.038Z,59.45
2023-03-04T00:52:16.563Z,55.70
2023-03-04T00:54:44.963Z,60.22
2023-03-04T00:57:13.535Z,54.22
2023-03-04T00:59:43.936Z,59.67
2023-03-04T01:02:12.452Z,61.22
2023-03-04T01:04:43.071Z,56.67
2023-03-04T01:07:11.758Z,58.63
2023-03-04T01:09:40.673Z,63.25
2023-03-04T01:12:09.429Z,57.73
2023-03-04T01:14:39.001Z,60.67
2023-03-04T01:17:15.286Z,56.88
2023-03-04T01:19:47.653Z,64.80
2023-03-04T01:22:40.695Z,59.35
2023-03-04T01:25:10.877Z,59.90
2023-03-04T01:27:39.383Z,60.88
2023-03-04T01:30:08.823Z,63.83
2023-03-04T01:32:38.063Z,64.60
2023-03-04T01:35:09.864Z,59.30
2023-03-04T01:37:38.413Z,54.83
2023-03-04T01:40:08.813Z,56.35
2023-03-04T01:42:39.762Z,54.90
2023-03-04T01:45:11.990Z,53.80
2023-03-04T01:47:40.486Z,58.80
2023-03-04T01:50:19.030Z,66.20
2023-03-04T01:52:47.607Z,53.58
2023-03-04T01:55:21.417Z,62.22
2023-03-04T01:57:53.888Z,54.55
2023-03-04T02:00:29.153Z,61.22
2023-03-04T02:03:03.538Z,54.17
2023-03-04T02:05:33.412Z,55.88
2023-03-04T02:08:05.762Z,60.80
2023-03-04T02:10:40.719Z,53.97
2023-03-04T02:13:09.249Z,50.20
2023-03-04T02:15:37.796Z,56.23
2023-03-04T02:18:16.777Z,59.72
2023-03-04T02:20:55.385Z,57.67
2023-03-04T02:23:34.011Z,56.67
2023-03-04T02:26:21.034Z,59.78
2023-03-04T02:28:53.497Z,60.73
2023-03-04T02:31:26.763Z,57.28
2023-03-04T02:33:58.563Z,57.35
2023-03-04T02:36:29.192Z,64.80
2023-03-04T02:39:02.560Z,57.13
2023-03-04T02:41:33.311Z,54.13
2023-03-04T02:44:03.034Z,53.83
2023-03-04T02:46:31.805Z,55.10
2023-03-04T02:49:00.277Z,53.15
2023-03-04T02:51:30.325Z,56.42
2023-03-04T02:54:02.238Z,49.13
2023-03-04T02:56:30.893Z,53.90
2023-03-04T02:59:02.366Z,55.88
2023-03-04T03:01:34.187Z,55.60
2023-03-04T03:04:02.970Z,60.60
2023-03-04T03:06:33.800Z,54.73
2023-03-04T03:09:02.336Z,53.40
2023-03-04T03:11:31.310Z,56.80
2023-03-04T03:14:01.228Z,51.65
2023-03-04T03:16:29.805Z,51.60
2023-03-04T03:18:58.620Z,49.97
2023-03-04T03:21:27.107Z,56.33
2023-03-04T03:23:55.552Z,57.97
2023-03-04T03:26:24.049Z,55.30
2023-03-04T03:28:52.694Z,55.33
2023-03-04T03:31:24.127Z,50.37
2023-03-04T03:33:53.059Z,51.17
2023-03-04T03:36:22.281Z,49.13
2023-03-04T03:38:50.766Z,59.20
2023-03-04T03:41:19.221Z,48.67
2023-03-04T03:43:47.703Z,50.63
2023-03-04T03:46:16.184Z,54.45
2023-03-04T03:48:45.814Z,52.67
2023-03-04T03:51:14.340Z,55.83
2023-03-04T03:53:42.825Z,51.58
2023-03-04T03:56:11.234Z,51.93
2023-03-04T03:58:39.740Z,54.00
2023-03-04T04:01:09.350Z,56.53
2023-03-04T04:03:37.915Z,50.30
2023-03-04T04:06:08.237Z,52.50
2023-03-04T04:08:36.609Z,54.23
2023-03-04T04:11:05.107Z,50.60
2023-03-04T04:13:33.589Z,55.78
2023-03-04T04:16:02.164Z,49.60
2023-03-04T04:18:30.789Z,54.67
2023-03-04T04:20:59.232Z,51.30
2023-03-04T04:23:28.842Z,56.75
2023-03-04T04:25:57.546Z,54.40
2023-03-04T04:28:26.300Z,51.92
2023-03-04T04:30:56.196Z,50.47
2023-03-04T04:33:24.696Z,53.80
2023-03-04T04:35:53.179Z,52.63
2023-03-04T04:38:21.608Z,47.03
2023-03-04T04:40:51.058Z,49.88
2023-03-04T04:43:19.524Z,52.72
2023-03-04T04:45:48.357Z,51.93
2023-03-04T04:48:16.796Z,52.10
2023-03-04T04:50:45.225Z,55.08
2023-03-04T04:53:13.905Z,53.95
2023-03-04T04:55:42.383Z,49.50
2023-03-04T04:58:11.984Z,54.43
2023-03-04T05:00:40.530Z,47.10
2023-03-04T05:03:09.207Z,47.55
2023-03-04T05:05:37.870Z,47.38
2023-03-04T05:08:06.748Z,48.22
2023-03-04T05:10:35.310Z,51.07
2023-03-04T05:13:03.796Z,48.20
2023-03-04T05:15:33.333Z,48.15
2023-03-04T05:18:01.983Z,44.60
2023-03-04T05:20:30.502Z,52.83
2023-03-04T05:22:59.297Z,51.10
2023-03-04T05:25:27.955Z,49.05
2023-03-04T05:27:56.940Z,45.90
2023-03-04T05:30:25.527Z,47.50
2023-03-04T05:32:55.349Z,45.47
2023-03-04T05:35:24.159Z,45.27
2023-03-04T05:37:53.012Z,42.72
2023-03-04T05:40:21.911Z,44.85
2023-03-04T05:42:50.368Z,45.83
2023-03-04T05:45:18.728Z,43.25
2023-03-04T05:47:47.247Z,43.93
2023-03-04T05:50:16.943Z,49.30
2023-03-04T05:52:45.523Z,49.67
2023-03-04T05:55:14.330Z,48.97
2023-03-04T05:57:42.797Z,41.40
2023-03-04T06:00:13.322Z,45.73
2023-03-04T06:02:42.411Z,44.30
2023-03-04T06:05:12.128Z,51.25
2023-03-04T06:07:43.134Z,49.75
2023-03-04T06:10:13.910Z,48.22
2023-03-04T06:12:42.612Z,46.43
2023-03-04T06:15:12.002Z,40.58
2023-03-04T06:17:42.210Z,52.22
2023-03-04T06:20:12.440Z,45.22
2023-03-04T06:22:42.090Z,47.55
2023-03-04T06:25:11.273Z,46.50
2023-03-04T06:27:39.763Z,46.60
2023-03-04T06:30:09.256Z,44.67
2023-03-04T06:32:37.742Z,43.67
2023-03-04T06:35:06.734Z,46.47
2023-03-04T06:37:35.217Z,45.63
2023-03-04T06:40:05.312Z,47.00
2023-03-04T06:42:33.738Z,50.50
2023-03-04T06:45:02.175Z,49.95
2023-03-04T06:47:30.954Z,48.47
2023-03-04T06:49:59.451Z,52.27
2023-03-04T06:52:27.999Z,48.70
2023-03-04T06:54:56.607Z,44.63
2023-03-04T06:57:26.130Z,50.72
2023-03-04T06:59:54.515Z,49.75
2023-03-04T07:02:22.993Z,53.90
2023-03-04T07:04:51.216Z,49.22
2023-03-04T07:07:19.686Z,53.75
2023-03-04T07:09:48.081Z,49.15
2023-03-04T07:12:16.520Z,50.85
2023-03-04T07:14:45.989Z,56.00
2023-03-04T07:17:14.614Z,58.28
2023-03-04T07:19:43.198Z,60.92
2023-03-04T07:22:11.758Z,57.40
2023-03-04T07:24:40.283Z,54.70
2023-03-04T07:27:08.760Z,56.90
2023-03-04T07:29:37.694Z,54.13
2023-03-04T07:32:10.677Z,55.20
2023-03-04T07:34:39.283Z,51.97
2023-03-04T07:37:07.800Z,51.08
2023-03-04T07:39:36.369Z,50.80
2023-03-04T07:42:04.957Z,54.55
2023-03-04T07:44:33.460Z,56.13
2023-03-04T07:47:02.100Z,56.95
2023-03-04T07:49:31.620Z,52.22
2023-03-04T07:51:59.993Z,55.13
2023-03-04T07:54:28.464Z,53.45
2023-03-04T07:56:56.951Z,50.50
2023-03-04T07:59:25.476Z,51.22
2023-03-04T08:01:53.925Z,47.42
2023-03-04T08:04:22.423Z,47.73
2023-03-04T08:06:52.246Z,45.42
2023-03-04T08:09:20.710Z,45.55
2023-03-04T08:11:49.268Z,51.67
2023-03-04T08:14:17.690Z,39.47
2023-03-04T08:16:46.410Z,39.97
2023-03-04T08:19:14.850Z,42.92
2023-03-04T08:21:43.417Z,47.30
2023-03-04T08:24:13.760Z,42.72
2023-03-04T08:26:44.108Z,36.08
2023-03-04T08:29:17.231Z,40.77
2023-03-04T08:31:48.796Z,36.30
2023-03-04T08:34:17.619Z,37.95
2023-03-04T08:36:46.219Z,36.03
2023-03-04T08:39:18.633Z,34.75
2023-03-04T08:41:47.846Z,35.03
2023-03-04T08:44:16.322Z,33.67
2023-03-04T08:46:44.915Z,35.28
2023-03-04T08:49:18.771Z,43.88
2023-03-04T08:51:48.052Z,36.67
2023-03-04T08:54:18.553Z,37.43
2023-03-04T08:56:47.751Z,38.70
2023-03-04T08:59:20.162Z,33.58
2023-03-04T09:01:49.598Z,29.77
2023-03-04T09:04:28.802Z,28.48
2023-03-04T09:07:05.441Z,28.00
2023-03-04T09:09:36.505Z,27.88
2023-03-04T09:12:15.207Z,28.90
2023-03-04T09:15:13.061Z,25.38
2023-03-04T09:17:47.091Z,26.67
2023-03-04T09:20:21.624Z,27.00
2023-03-04T09:22:55.470Z,27.02
2023-03-04T09:25:52.490Z,27.13
2023-03-04T09:29:01.506Z,27.20
2023-03-04T09:37:25.932Z,27.60
2023-03-04T09:39:57.984Z,30.83
2023-03-04T09:42:40.715Z,33.85
2023-03-04T09:45:22.044Z,28.65
2023-03-04T09:47:54.168Z,30.80
2023-03-04T09:50:23.675Z,28.55
2023-03-04T09:53:08.015Z,31.15
2023-03-04T09:55:41.833Z,29.98
2023-03-04T09:58:23.359Z,31.40
2023-03-04T10:00:58.081Z,35.53
2023-03-04T10:03:34.419Z,30.27
2023-03-04T10:06:06.570Z,32.53
2023-03-04T10:08:41.508Z,29.35
2023-03-04T10:11:15.998Z,34.42
2023-03-04T10:13:55.455Z,27.87
2023-03-04T10:16:30.951Z,29.13
2023-03-04T10:19:10.648Z,31.67
2023-03-04T10:21:46.606Z,31.13
2023-03-04T10:24:20.316Z,27.05
2023-03-04T10:26:52.229Z,26.37
2023-03-04T10:29:31.616Z,28.52
2023-03-04T10:32:05.771Z,28.33
2023-03-04T10:34:35.017Z,26.92
2023-03-04T10:37:06.937Z,31.77
2023-03-04T10:39:38.029Z,32.20
2023-03-04T10:43:15.332Z,27.35
2023-03-04T10:45:46.773Z,28.83
2023-03-04T10:48:25.686Z,26.42
2023-03-04T10:51:19.364Z,27.42
2023-03-04T10:53:50.508Z,27.70
2023-03-04T10:56:38.097Z,29.67
2023-03-04T10:59:40.845Z,27.10
2023-03-04T11:02:40.643Z,27.80
2023-03-04T11:05:26.044Z,27.98
2023-03-04T11:08:02.172Z,27.13
2023-03-04T11:11:07.630Z,25.33
2023-03-04T11:13:41.888Z,25.23
2023-03-04T11:16:38.607Z,27.92
2023-03-04T11:19:23.256Z,28.63
2023-03-04T11:21:59.710Z,21.70
2023-03-04T11:24:49.877Z,23.15
2023-03-04T11:27:37.126Z,24.73
2023-03-04T11:30:20.720Z,22.95
2023-03-04T11:32:51.879Z,25.13
2023-03-04T11:35:28.150Z,22.87
2023-03-04T11:38:09.943Z,22.13
2023-03-04T11:41:07.934Z,24.10
2023-03-04T11:43:38.802Z,24.42
2023-03-04T11:46:50.830Z,21.70
2023-03-04T11:50:06.664Z,24.73
2023-03-04T11:52:57.011Z,23.80
2023-03-04T11:55:36.922Z,24.38
2023-03-04T11:58:29.225Z,24.20
2023-03-04T12:01:08.528Z,23.00
2023-03-04T12:04:01.049Z,23.33
2023-03-04T12:06:48.796Z,25.85
2023-03-04T12:09:35.163Z,22.85
2023-03-04T12:12:22.105Z,23.35
2023-03-04T12:15:12.666Z,20.92
2023-03-04T12:18:24.473Z,21.73
2023-03-04T12:21:05.022Z,24.75
2023-03-04T12:24:02.000Z,23.65
2023-03-04T12:26:39.919Z,26.20
2023-03-04T12:29:20.221Z,22.40
2023-03-04T12:32:07.293Z,22.13
2023-03-04T12:34:47.757Z,20.30
2023-03-04T12:37:37.492Z,21.00
2023-03-04T12:40:22.561Z,21.05
2023-03-04T12:43:05.570Z,21.25
2023-03-04T12:45:42.659Z,18.70
2023-03-04T12:48:22.613Z,20.17
2023-03-04T12:51:01.984Z,22.83
2023-03-04T12:53:34.923Z,22.27
2023-03-04T12:56:09.963Z,20.27
2023-03-04T12:58:40.308Z,23.63
2023-03-04T13:01:25.863Z,20.75
2023-03-04T13:04:30.527Z,20.40
2023-03-04T13:07:13.662Z,31.23
2023-03-04T13:09:52.692Z,23.00
2023-03-04T13:12:23.019Z,26.80
2023-03-04T13:15:20.438Z,22.38
2023-03-04T13:17:50.793Z,23.75
2023-03-04T13:20:36.747Z,20.80
2023-03-04T13:23:27.203Z,21.15
2023-03-04T13:26:30.638Z,20.87
2023-03-04T13:29:41.817Z,20.98
2023-03-04T13:32:13.957Z,21.27
2023-03-04T13:35:04.904Z,22.95
2023-03-04T13:37:59.126Z,21.70
2023-03-04T13:40:42.207Z,19.50
2023-03-04T13:43:45.932Z,22.15
2023-03-04T13:46:49.529Z,21.05
2023-03-04T13:49:37.036Z,22.88
2023-03-04T13:52:43.468Z,18.85
2023-03-04T13:55:36.796Z,21.13
2023-03-04T13:58:27.109Z,17.85
2023-03-04T14:01:03.098Z,19.15
2023-03-04T14:03:36.662Z,17.52
2023-03-04T14:06:21.398Z,20.30
2023-03-04T14:09:04.496Z,25.10
2023-03-04T14:11:38.652Z,19.35
2023-03-04T14:14:09.165Z,19.17
2023-03-04T14:16:50.962Z,21.85
2023-03-04T14:19:32.680Z,19.08
2023-03-04T14:22:20.711Z,18.47
2023-03-04T14:25:02.449Z,21.67
2023-03-04T14:27:35.689Z,21.15
2023-03-04T14:30:10.056Z,21.58
2023-03-04T14:32:39.439Z,21.15
2023-03-04T14:35:21.862Z,24.23
2023-03-04T14:38:07.042Z,22.58
2023-03-04T14:40:51.239Z,22.23
2023-03-04T14:43:29.154Z,24.02
2023-03-04T14:46:19.751Z,25.10
2023-03-04T14:48:54.591Z,22.70
2023-03-04T14:51:35.345Z,20.00
2023-03-04T14:54:05.208Z,20.98
2023-03-04T14:56:38.060Z,21.75
2023-03-04T14:59:06.505Z,20.05
2023-03-04T15:01:42.415Z,21.13
2023-03-04T15:04:12.236Z,20.80
2023-03-04T15:06:52.980Z,22.02
2023-03-04T15:09:24.495Z,26.60
2023-03-04T15:11:56.056Z,40.40
2023-03-04T15:14:44.222Z,34.20
2023-03-04T15:17:31.578Z,22.13
2023-03-04T15:20:01.956Z,19.83
2023-03-04T15:22:30.904Z,34.50
2023-03-04T15:25:00.652Z,22.80
2023-03-04T15:27:35.266Z,23.80
2023-03-04T15:30:16.749Z,24.90
2023-03-04T15:32:48.011Z,24.77
2023-03-04T15:35:23.168Z,23.00
2023-03-04T15:37:55.055Z,19.80
2023-03-04T15:40:28.807Z,23.10
2023-03-04T15:42:58.840Z,24.98
2023-03-04T15:45:29.490Z,21.65
2023-03-04T15:47:57.944Z,22.52
2023-03-04T15:50:29.815Z,19.27
2023-03-04T15:53:02.462Z,22.00
2023-03-04T15:55:37.478Z,19.52
2023-03-04T15:58:06.490Z,22.85
2023-03-04T16:00:39.863Z,18.95
2023-03-04T16:03:09.060Z,20.83
2023-03-04T16:05:40.638Z,32.80
2023-03-04T16:08:14.313Z,23.88
2023-03-04T16:10:47.659Z,20.38
2023-03-04T16:13:18.353Z,21.33
2023-03-04T16:15:47.473Z,27.63
2023-03-04T16:18:17.888Z,22.30
2023-03-04T16:20:49.353Z,23.58
2023-03-04T16:23:21.112Z,23.27
2023-03-04T16:25:55.827Z,21.80
2023-03-04T16:28:24.857Z,25.00
2023-03-04T16:30:53.840Z,22.63
2023-03-04T16:33:23.047Z,22.67
2023-03-04T16:35:52.668Z,22.20
2023-03-04T16:38:29.996Z,22.88
2023-03-04T16:41:02.904Z,23.20
2023-03-04T16:43:31.854Z,23.30
2023-03-04T16:49:49.075Z,21.30
2023-03-04T16:52:37.078Z,22.67
2023-03-04T16:55:05.816Z,22.48
2023-03-04T16:57:38.646Z,24.87
2023-03-04T17:00:08.942Z,25.85
2023-03-04T17:02:37.802Z,22.00
2023-03-04T17:05:10.282Z,23.10
2023-03-04T17:07:39.120Z,24.27
2023-03-04T17:10:08.352Z,24.47
2023-03-04T17:12:38.266Z,27.77
2023-03-04T17:15:11.373Z,21.35
2023-03-04T17:17:43.041Z,22.40
2023-03-04T17:20:14.391Z,20.90
2023-03-04T17:22:43.092Z,23.83
2023-03-04T17:25:12.210Z,21.45
2023-03-04T17:27:42.942Z,21.08
2023-03-04T17:30:13.404Z,23.52
2023-03-04T17:32:42.464Z,24.02
2023-03-04T17:35:14.328Z,21.70
2023-03-04T17:37:43.524Z,23.42
2023-03-04T17:40:14.670Z,21.50
2023-03-04T17:42:44.888Z,22.02
2023-03-04T17:45:13.887Z,21.50
2023-03-04T17:47:42.602Z,24.27
2023-03-04T17:50:12.613Z,25.23
2023-03-04T17:52:44.180Z,23.77
2023-03-04T17:55:16.965Z,23.38
2023-03-04T17:57:46.852Z,22.75
2023-03-04T18:00:16.459Z,23.93
2023-03-04T18:02:45.415Z,22.40
2023-03-04T18:05:14.356Z,24.40
2023-03-04T18:07:43.344Z,25.13
2023-03-04T18:10:13.066Z,28.98
2023-03-04T18:12:42.048Z,25.37
2023-03-04T18:15:12.981Z,26.48
2023-03-04T18:17:42.587Z,26.38
2023-03-04T18:20:12.814Z,28.95
2023-03-04T18:22:41.940Z,26.17
2023-03-04T18:25:12.757Z,25.73
2023-03-04T18:27:42.278Z,27.45
2023-03-04T18:30:18.311Z,23.48
2023-03-04T18:32:52.207Z,26.55
2023-03-04T18:35:22.221Z,29.58
2023-03-04T18:37:52.074Z,27.10
2023-03-04T18:40:21.259Z,28.60
2023-03-04T18:42:53.112Z,25.88
2023-03-04T18:45:23.580Z,27.50
2023-03-04T18:47:54.179Z,27.65
2023-03-04T18:50:23.170Z,30.47
2023-03-04T18:52:53.449Z,30.73
2023-03-04T18:55:22.584Z,27.02
2023-03-04T18:58:01.946Z,24.08
2023-03-04T19:00:35.945Z,28.27
2023-03-04T19:03:08.530Z,24.87
2023-03-04T19:05:41.091Z,26.60
2023-03-04T19:08:12.130Z,30.67
2023-03-04T19:10:43.910Z,22.95
2023-03-04T19:13:25.072Z,26.10
2023-03-04T19:15:58.481Z,31.87
2023-03-04T19:18:31.360Z,29.30
2023-03-04T19:21:03.685Z,28.02
2023-03-04T19:23:35.089Z,29.33
2023-03-04T19:26:05.412Z,28.17
2023-03-04T19:28:35.402Z,25.93
2023-03-04T19:31:10.426Z,29.60
2023-03-04T19:33:42.965Z,27.00
2023-03-04T19:36:20.320Z,30.08
2023-03-04T19:38:50.325Z,31.13
2023-03-04T19:41:23.307Z,26.17
2023-03-04T19:43:54.370Z,25.98
2023-03-04T19:46:28.716Z,25.67
2023-03-04T19:48:58.281Z,30.45
2023-03-04T19:51:29.403Z,27.58
2023-03-04T19:53:59.032Z,25.70
2023-03-04T19:56:28.346Z,28.55
2023-03-04T19:58:57.648Z,29.00
2023-03-04T20:01:31.864Z,28.52
2023-03-04T20:04:05.740Z,28.00
2023-03-04T20:06:37.135Z,26.33
2023-03-04T20:09:07.240Z,27.08
2023-03-04T20:11:47.233Z,29.98
2023-03-04T20:14:20.294Z,28.88
2023-03-04T20:16:50.716Z,29.52
2023-03-04T20:19:24.644Z,47.17
2023-03-04T20:21:53.515Z,40.80
2023-03-04T20:24:23.510Z,38.38
2023-03-04T20:26:52.816Z,42.38
2023-03-04T20:29:22.750Z,32.60
2023-03-04T20:32:06.159Z,28.53
2023-03-04T20:34:37.229Z,26.38
2023-03-04T20:37:07.544Z,27.20
2023-03-04T20:39:41.008Z,31.67
2023-03-04T20:42:16.979Z,29.85
2023-03-04T20:44:46.041Z,28.47
2023-03-04T20:47:16.531Z,29.67
2023-03-04T20:49:47.237Z,30.25
2023-03-04T20:52:18.313Z,30.40
2023-03-04T20:54:51.082Z,28.55
2023-03-04T20:57:20.688Z,32.10
2023-03-04T20:59:49.987Z,29.10
2023-03-04T21:02:32.612Z,28.23
2023-03-04T21:05:02.607Z,30.83
2023-03-04T21:07:33.055Z,36.05
2023-03-04T21:10:05.622Z,31.37
2023-03-04T21:12:37.874Z,32.45
2023-03-04T21:15:11.987Z,29.80
2023-03-04T21:17:42.634Z,27.25
2023-03-04T21:20:15.538Z,30.92
2023-03-04T21:22:48.725Z,30.63
2023-03-04T21:25:23.341Z,28.52
2023-03-04T21:27:58.067Z,29.30
2023-03-04T21:30:27.309Z,28.92
2023-03-04T21:32:57.745Z,28.60
2023-03-04T21:38:38.656Z,31.40
2023-03-04T21:41:14.903Z,32.58
2023-03-04T21:43:44.579Z,31.73
2023-03-04T21:46:16.062Z,32.20
2023-03-04T21:48:47.905Z,36.63
2023-03-04T21:51:20.596Z,27.77
2023-03-04T21:53:50.080Z,34.35
2023-03-04T21:56:19.383Z,35.08
2023-03-04T21:58:48.473Z,32.28
2023-03-04T22:01:19.715Z,35.63
2023-03-04T22:03:51.788Z,36.15
2023-03-04T22:06:27.364Z,31.23
2023-03-04T22:08:57.754Z,32.17
2023-03-04T22:11:27.483Z,30.52
2023-03-04T22:13:56.579Z,29.03
2023-03-04T22:16:26.221Z,35.58
2023-03-04T22:18:58.443Z,34.10
2023-03-04T22:21:45.610Z,35.60
2023-03-04T22:24:18.468Z,36.88
2023-03-04T22:26:47.306Z,37.83
2023-03-04T22:29:18.567Z,37.45
2023-03-04T22:31:47.898Z,33.25
2023-03-04T22:34:18.565Z,36.67
2023-03-04T22:36:49.518Z,33.58
2023-03-04T22:39:23.376Z,36.53
2023-03-04T22:41:51.943Z,36.78
2023-03-04T22:44:20.579Z,37.83
2023-03-04T22:46:50.249Z,38.22
2023-03-04T22:49:19.843Z,38.33
2023-03-04T22:51:48.326Z,38.60
2023-03-04T22:54:19.166Z,40.97
2023-03-04T22:56:48.181Z,37.83
2023-03-04T22:59:18.788Z,38.72
2023-03-04T23:01:49.449Z,38.58
2023-03-04T23:04:17.924Z,35.33
2023-03-04T23:06:47.496Z,42.53
2023-03-04T23:09:16.202Z,47.47
2023-03-04T23:11:44.791Z,40.40
2023-03-04T23:14:13.450Z,38.40
2023-03-04T23:16:44.286Z,42.90
2023-03-04T23:19:15.241Z,38.17
2023-03-04T23:21:48.517Z,36.75
2023-03-04T23:24:19.689Z,36.53
2023-03-04T23:26:52.334Z,35.95
2023-03-04T23:29:20.828Z,31.17
2023-03-04T23:31:50.444Z,38.45
2023-03-04T23:34:18.990Z,35.25
2023-03-04T23:36:50.040Z,33.95
2023-03-04T23:39:19.917Z,34.40
2023-03-04T23:41:48.433Z,32.33
2023-03-04T23:44:16.935Z,32.88
2023-03-04T23:46:45.319Z,33.42
2023-03-04T23:49:17.088Z,31.35
2023-03-04T23:51:46.058Z,36.28
2023-03-04T23:54:16.571Z,36.93
2023-03-04T23:56:46.005Z,35.00
2023-03-04T23:59:24.426Z,36.55
